Terminal Aerodrome Forecast
Issued by NWS Quad Cities IA IL

Home | Current Version | Previous Version | Text Only | Print | Product List | Glossary On
Versions: 1 2 3 4 5 6 7 8 9 10 11 12 13 14 15 16 17 18 19 20 21 22 23 24 25 26 27 28 29 30
636
FTUS43 KDVN 281412 AAB
TAFDBQ
TAF AMD
KDBQ 281412Z 2814/2912 19012KT P6SM BKN007 BKN012
      TEMPO 2814/2815 SCT009 BKN020
     FM281500 19012G18KT P6SM FEW012 BKN020
      TEMPO 2815/2817 SCT020
     FM281930 19015G20KT P6SM VCTS SCT030CB BKN200
      TEMPO 2820/2822 VRB20G30KT 3SM TSRA BR BKN020CB
     FM290100 19008KT P6SM SCT030 BKN070
     FM290900 22010KT 6SM BR SCT014 BKN035=

USA.gov is the U.S. government's official web portal to all federal, state and local government web resources and services.